Time;durP1;ratioP1;P1;durP2;ratioP2;P2;SDS_P1;SDS_P2;PMS_P1;PMS_P2;Temp;Humidity;BMP_temperature;BMP_pressure;BME280_temperature;BME280_humidity;BME280_pressure;Samples;Min_cycle;Max_cycle;Signal;HPM_P1;HPM_P2
2023/03/20 00:00:25;;;;;;;;;;;5.40;81.10;;;4.18;nan;96444.22;4994413;28;19928;-84
2023/03/20 00:02:53;;;;;;;;;;;5.40;80.30;;;4.18;nan;96449.66;5010544;28;19929;-84
2023/03/20 00:05:23;;;;;;;;;;;5.40;80.30;;;4.16;nan;96444.47;5028224;28;19927;-84
2023/03/20 00:07:51;;;;;;;;;;;5.40;80.40;;;4.16;nan;96441.75;5050500;28;19943;-84
2023/03/20 00:10:21;;;;;;;;;;;5.40;80.40;;;4.13;nan;96442.19;5033595;28;19921;-84
2023/03/20 00:12:50;;;;;;;;;;;5.40;80.50;;;4.15;nan;96449.03;5033075;28;19921;-84
2023/03/20 00:15:24;;;;;;;;;;;5.40;80.60;;;4.15;nan;96442.81;5050193;28;19927;-84
2023/03/20 00:17:52;;;;;;;;;;;5.40;80.60;;;4.14;nan;96449.28;5033660;28;19927;-84
2023/03/20 00:20:20;;;;;;;;;;;5.40;80.40;;;4.16;nan;96441.75;5066850;23;19928;-83
2023/03/20 00:22:48;;;;;;;;;;;5.40;80.40;;;4.14;nan;96439.25;5013652;28;19929;-83
2023/03/20 00:25:17;;;;;;;;;;;5.40;80.30;;;4.15;nan;96440.09;5030488;28;20227;-83
2023/03/20 00:27:46;;;;;;;;;;;5.40;80.30;;;4.13;nan;96440.31;5030187;28;19927;-83
2023/03/20 00:30:23;;;;;;;;;;;5.40;80.40;;;4.14;nan;96443.84;5030284;28;19929;-83
2023/03/20 00:32:53;;;;;;;;;;;5.40;80.40;;;4.13;nan;96432.16;5029761;28;19921;-83
2023/03/20 00:35:26;;;;;;;;;;;5.40;80.30;;;4.14;nan;96436.53;5013851;28;20235;-84
2023/03/20 00:37:55;;;;;;;;;;;5.40;80.30;;;4.12;nan;96430.53;5013803;28;20242;-83
2023/03/20 00:40:23;;;;;;;;;;;5.40;80.30;;;4.14;nan;96430.31;5030095;28;19929;-83
2023/03/20 00:42:57;;;;;;;;;;;5.30;80.40;;;4.14;nan;96433.00;5013437;28;19921;-83
2023/03/20 00:45:25;;;;;;;;;;;5.30;80.40;;;4.12;nan;96435.97;5030217;28;19921;-84
2023/03/20 00:47:53;;;;;;;;;;;5.30;80.60;;;4.12;nan;96435.13;5030450;28;20209;-83
2023/03/20 00:50:22;;;;;;;;;;;5.30;80.50;;;4.12;nan;96425.13;5029762;28;19922;-83
2023/03/20 00:52:50;;;;;;;;;;;5.30;80.50;;;4.13;nan;96431.34;5030447;28;19928;-83
2023/03/20 00:55:18;;;;;;;;;;;5.30;80.50;;;4.12;nan;96418.84;5033682;28;19921;-83
2023/03/20 00:57:48;;;;;;;;;;;5.30;80.40;;;4.11;nan;96428.88;5017346;28;19928;-83
2023/03/20 01:00:33;;;;;;;;;;;5.30;80.50;;;4.11;nan;96428.03;5017204;28;19921;-83
2023/03/20 01:03:02;;;;;;;;;;;5.30;80.40;;;4.12;nan;96424.28;5033152;28;19928;-83
2023/03/20 01:05:30;;;;;;;;;;;5.30;80.40;;;4.12;nan;96424.28;5034375;28;19928;-83
2023/03/20 01:07:59;;;;;;;;;;;5.30;80.30;;;4.10;nan;96421.81;5033348;28;19925;-82
2023/03/20 01:10:28;;;;;;;;;;;5.30;80.40;;;4.10;nan;96415.53;5033274;28;19928;-83
2023/03/20 01:12:56;;;;;;;;;;;5.30;80.30;;;4.11;nan;96419.91;5032547;28;19929;-83
2023/03/20 01:15:27;;;;;;;;;;;5.30;80.40;;;4.09;nan;96420.16;5033389;28;19935;-83
2023/03/20 01:17:55;;;;;;;;;;;5.30;80.40;;;4.10;nan;96420.97;5017111;28;19921;-83
2023/03/20 01:20:24;;;;;;;;;;;5.30;80.30;;;4.09;nan;96416.59;5047858;28;19920;-83
2023/03/20 01:22:53;;;;;;;;;;;5.30;80.40;;;4.09;nan;96422.00;5051884;28;19931;-83
2023/03/20 01:25:21;;;;;;;;;;;5.30;80.30;;;4.08;nan;96404.94;5053290;28;19921;-82
2023/03/20 01:27:50;;;;;;;;;;;5.30;80.30;;;4.09;nan;96419.31;5036549;28;20120;-82
2023/03/20 01:30:21;;;;;;;;;;;5.30;80.20;;;4.08;nan;96412.22;5052974;28;20234;-83
2023/03/20 01:32:50;;;;;;;;;;;5.30;80.20;;;4.08;nan;96418.50;5036006;28;19921;-83
2023/03/20 01:35:20;;;;;;;;;;;5.30;80.30;;;4.08;nan;96412.22;5036277;28;19928;-82
2023/03/20 01:37:48;;;;;;;;;;;5.30;80.30;;;4.08;nan;96412.22;5052850;28;19921;-82
2023/03/20 01:40:32;;;;;;;;;;;5.30;80.40;;;4.07;nan;96407.84;5039786;28;19963;-82
2023/03/20 01:43:02;;;;;;;;;;;5.30;80.50;;;4.08;nan;96412.22;5055455;28;19928;-83
2023/03/20 01:45:32;;;;;;;;;;;5.30;80.60;;;4.08;nan;96406.81;5072947;28;20116;-82
2023/03/20 01:48:13;;;;;;;;;;;5.30;80.50;;;4.07;nan;96413.28;5055886;28;19927;-82
2023/03/20 01:50:41;;;;;;;;;;;5.30;80.50;;;4.07;nan;96414.13;5055635;28;19927;-83
2023/03/20 01:53:15;;;;;;;;;;;5.30;80.50;;;4.07;nan;96413.28;5088557;28;19921;-83
2023/03/20 01:55:48;;;;;;;;;;;5.30;80.50;;;4.06;nan;96409.75;5055602;28;19927;-82
2023/03/20 01:58:19;;;;;;;;;;;5.30;80.40;;;4.07;nan;96405.16;5055761;28;19921;-82
2023/03/20 02:00:48;;;;;;;;;;;5.30;80.50;;;4.06;nan;96403.53;5055639;28;19925;-83
2023/03/20 02:03:20;;;;;;;;;;;5.30;80.60;;;4.05;nan;96407.28;5071494;28;19927;-83
2023/03/20 02:06:02;;;;;;;;;;;5.30;80.40;;;4.05;nan;96416.22;5070881;28;19950;-83
2023/03/20 02:08:51;;;;;;;;;;;5.30;80.50;;;4.05;nan;96416.22;5072483;28;20120;-82
2023/03/20 02:11:21;;;;;;;;;;;5.30;80.60;;;4.05;nan;96418.94;5072460;28;20102;-82
2023/03/20 02:13:49;;;;;;;;;;;5.30;80.60;;;4.05;nan;96420.81;5055121;28;19940;-82
2023/03/20 02:16:18;;;;;;;;;;;5.30;80.60;;;4.05;nan;96418.13;5072500;28;20230;-82
2023/03/20 02:19:12;;;;;;;;;;;5.30;80.40;;;4.04;nan;96416.44;5073425;28;19921;-83
2023/03/20 02:22:13;;;;;;;;;;;5.30;80.30;;;4.03;nan;96412.91;5055517;28;19920;-83
2023/03/20 02:25:25;;;;;;;;;;;5.30;80.30;;;4.04;nan;96408.31;5029474;28;19921;-83
2023/03/20 02:28:26;;;;;;;;;;;5.30;80.50;;;4.03;nan;96412.09;5055180;28;19920;-82
2023/03/20 02:31:10;;;;;;;;;;;5.20;80.50;;;4.03;nan;96409.38;5065641;28;19920;-83
2023/03/20 02:34:08;;;;;;;;;;;5.30;80.40;;;4.02;nan;96419.38;5071621;28;19927;-82
2023/03/20 02:37:15;;;;;;;;;;;5.20;80.50;;;4.02;nan;96418.56;5034266;28;19927;-82
2023/03/20 02:39:52;;;;;;;;;;;5.20;80.60;;;4.02;nan;96416.66;5068932;28;19927;-82
2023/03/20 02:42:23;;;;;;;;;;;5.20;80.80;;;4.01;nan;96412.28;5071882;28;19958;-82
2023/03/20 02:44:55;;;;;;;;;;;5.20;80.60;;;4.02;nan;96413.13;5071649;28;20246;-83
2023/03/20 02:47:25;;;;;;;;;;;5.20;80.60;;;4.01;nan;96414.19;5055180;28;19944;-82
2023/03/20 02:49:56;;;;;;;;;;;5.20;80.50;;;4.01;nan;96416.91;5055257;28;19921;-82
2023/03/20 02:52:32;;;;;;;;;;;5.20;80.50;;;4.00;nan;96416.06;5043349;28;19929;-82
2023/03/20 02:55:06;;;;;;;;;;;5.20;80.50;;;4.00;nan;96418.78;5034768;28;20220;-82
2023/03/20 02:57:38;;;;;;;;;;;5.20;80.60;;;3.99;nan;96409.81;5035044;28;19927;-82
2023/03/20 03:00:10;;;;;;;;;;;5.20;80.50;;;3.99;nan;96412.53;5035187;28;19921;-83
2023/03/20 03:02:44;;;;;;;;;;;5.20;80.40;;;4.00;nan;96410.66;5051029;28;19927;-83
2023/03/20 03:05:13;;;;;;;;;;;5.20;80.40;;;3.99;nan;96407.09;5051643;28;19927;-82
2023/03/20 03:07:44;;;;;;;;;;;5.20;80.30;;;3.99;nan;96409.81;5051479;28;19927;-82
2023/03/20 03:10:13;;;;;;;;;;;5.20;80.40;;;3.98;nan;96402.75;5051412;28;19921;-82
2023/03/20 03:12:43;;;;;;;;;;;5.20;80.60;;;3.99;nan;96404.41;5050996;28;19921;-82
2023/03/20 03:15:14;;;;;;;;;;;5.20;80.40;;;3.99;nan;96403.59;5034939;28;19927;-82
2023/03/20 03:17:43;;;;;;;;;;;5.20;80.40;;;3.99;nan;96406.28;5034651;28;20364;-82
2023/03/20 03:20:17;;;;;;;;;;;5.20;80.60;;;3.97;nan;96403.78;5066969;28;19927;-83
2023/03/20 03:22:46;;;;;;;;;;;5.20;80.60;;;3.99;nan;96398.16;5033644;28;19921;-82
2023/03/20 03:25:14;;;;;;;;;;;5.20;80.40;;;3.98;nan;96405.44;5051295;28;19927;-82
2023/03/20 03:27:43;;;;;;;;;;;5.20;80.40;;;3.97;nan;96403.78;5051402;28;19921;-82
2023/03/20 03:30:13;;;;;;;;;;;5.20;80.40;;;3.97;nan;96401.09;5034485;28;19927;-82
2023/03/20 03:32:45;;;;;;;;;;;5.20;80.40;;;3.97;nan;96395.66;5050510;28;19921;-82
2023/03/20 03:35:16;;;;;;;;;;;5.20;80.40;;;3.97;nan;96395.66;5051059;28;20238;-82
2023/03/20 03:37:50;;;;;;;;;;;5.20;80.30;;;3.96;nan;96394.00;5058983;28;19929;-82
2023/03/20 03:40:21;;;;;;;;;;;5.20;80.30;;;3.97;nan;96400.25;5054255;28;19942;-82
2023/03/20 03:42:53;;;;;;;;;;;5.20;80.30;;;3.97;nan;96400.25;5054000;28;19920;-81
2023/03/20 03:45:23;;;;;;;;;;;5.20;80.40;;;3.97;nan;96400.25;5054447;28;19921;-82
2023/03/20 03:47:53;;;;;;;;;;;5.20;80.60;;;3.97;nan;96400.25;5054122;28;19920;-82
2023/03/20 03:50:23;;;;;;;;;;;5.20;80.80;;;3.96;nan;96396.72;5054251;28;19920;-82
2023/03/20 03:52:52;;;;;;;;;;;5.20;80.60;;;3.96;nan;96393.19;5070458;28;19921;-82
2023/03/20 03:55:22;;;;;;;;;;;5.20;80.70;;;3.95;nan;96389.63;5054095;28;19943;-82
2023/03/20 03:58:01;;;;;;;;;;;5.20;80.40;;;3.95;nan;96391.53;5054113;28;19921;-82
2023/03/20 04:00:29;;;;;;;;;;;5.20;80.40;;;3.94;nan;96387.97;5070707;28;19927;-82
2023/03/20 04:02:58;;;;;;;;;;;5.20;80.60;;;3.96;nan;96399.41;5053313;28;19921;-82
2023/03/20 04:05:30;;;;;;;;;;;5.20;80.40;;;3.95;nan;96402.38;5054035;28;19920;-82
2023/03/20 04:08:01;;;;;;;;;;;5.20;80.60;;;3.95;nan;96408.59;5054005;28;19927;-82
2023/03/20 04:10:29;;;;;;;;;;;5.20;80.70;;;3.95;nan;96391.53;5053906;28;19927;-82
2023/03/20 04:12:57;;;;;;;;;;;5.20;80.60;;;3.95;nan;96410.50;5070046;28;19921;-82
2023/03/20 04:15:26;;;;;;;;;;;5.20;80.60;;;3.95;nan;96400.47;5053847;28;19921;-82
2023/03/20 04:17:54;;;;;;;;;;;5.20;80.60;;;3.94;nan;96401.53;5070435;28;20208;-83
2023/03/20 04:20:22;;;;;;;;;;;5.20;80.50;;;3.94;nan;96406.94;5053522;28;19927;-82
2023/03/20 04:22:50;;;;;;;;;;;5.20;80.60;;;3.94;nan;96409.66;5053162;28;19921;-82
2023/03/20 04:25:21;;;;;;;;;;;5.20;80.80;;;3.94;nan;96406.94;5053718;28;19927;-82
2023/03/20 04:27:51;;;;;;;;;;;5.20;80.60;;;3.95;nan;96407.78;5053049;28;20127;-82
2023/03/20 04:30:38;;;;;;;;;;;5.20;80.50;;;3.95;nan;96408.59;5070215;28;20100;-82
2023/03/20 04:33:25;;;;;;;;;;;5.20;80.60;;;3.94;nan;96403.41;5053086;28;19920;-82
2023/03/20 04:36:12;;;;;;;;;;;5.20;80.60;;;3.94;nan;96404.22;5069942;28;19920;-82
2023/03/20 04:38:40;;;;;;;;;;;5.20;80.50;;;3.93;nan;96402.59;5053508;28;20105;-82
2023/03/20 04:41:10;;;;;;;;;;;5.20;80.60;;;3.96;nan;96404.84;5053585;28;19924;-82
2023/03/20 04:43:39;;;;;;;;;;;5.20;80.60;;;3.95;nan;96397.75;5069734;28;20220;-82
2023/03/20 04:46:07;;;;;;;;;;;5.20;80.60;;;3.95;nan;96408.59;5070171;28;20135;-82
2023/03/20 04:48:35;;;;;;;;;;;5.20;80.40;;;3.95;nan;96400.47;5070175;28;19927;-82
2023/03/20 04:51:03;;;;;;;;;;;5.20;80.30;;;3.95;nan;96405.88;5086955;28;19920;-82
2023/03/20 04:53:44;;;;;;;;;;;5.20;80.20;;;3.96;nan;96414.84;5046963;28;19920;-81
2023/03/20 04:56:13;;;;;;;;;;;5.20;80.20;;;3.96;nan;96421.09;5050014;28;19920;-82
2023/03/20 04:58:41;;;;;;;;;;;5.20;80.30;;;3.97;nan;96422.75;5033363;28;19927;-82
2023/03/20 05:01:10;;;;;;;;;;;5.20;80.40;;;3.98;nan;96426.31;5066792;28;20100;-82
2023/03/20 05:03:39;;;;;;;;;;;5.20;80.30;;;3.98;nan;96423.59;5049389;28;19921;-82
2023/03/20 05:06:07;;;;;;;;;;;5.20;80.20;;;3.99;nan;96427.97;5049583;28;19921;-82
2023/03/20 05:08:37;;;;;;;;;;;5.20;80.00;;;3.98;nan;96427.13;5049841;28;19921;-82
2023/03/20 05:11:07;;;;;;;;;;;5.20;80.10;;;4.01;nan;96427.72;5033191;28;19927;-82
2023/03/20 05:14:03;;;;;;;;;;;5.20;80.10;;;4.03;nan;96425.63;5048223;28;20131;-82
2023/03/20 05:16:57;;;;;;;;;;;5.30;80.10;;;4.04;nan;96424.59;5048785;28;19925;-82
2023/03/20 05:19:38;;;;;;;;;;;5.30;80.00;;;4.07;nan;96426.81;5032902;28;20086;-83
2023/03/20 05:22:08;;;;;;;;;;;5.30;79.90;;;4.10;nan;96431.81;5050987;28;19928;-82
2023/03/20 05:24:52;;;;;;;;;;;5.30;80.00;;;4.13;nan;96437.59;5049131;28;19921;-82
2023/03/20 05:27:26;;;;;;;;;;;5.40;79.80;;;4.18;nan;96434.25;5049832;28;19927;-82
2023/03/20 05:30:14;;;;;;;;;;;5.40;79.90;;;4.23;nan;96433.56;5049470;28;19927;-83
2023/03/20 05:33:03;;;;;;;;;;;5.50;79.80;;;4.29;nan;96433.50;5038719;28;20208;-82
2023/03/20 05:35:54;;;;;;;;;;;5.60;79.40;;;4.34;nan;96437.38;5044128;28;19920;-82
2023/03/20 05:38:33;;;;;;;;;;;5.70;79.30;;;4.38;nan;96439.44;5032773;28;19920;-82
2023/03/20 05:41:30;;;;;;;;;;;5.70;78.80;;;4.37;nan;96442.38;5015643;28;19927;-82
2023/03/20 05:44:36;;;;;;;;;;;5.70;78.50;;;4.36;nan;96446.13;5015070;28;19927;-82
2023/03/20 05:47:35;;;;;;;;;;;5.70;78.40;;;4.33;nan;96446.56;4998258;28;19921;-83
2023/03/20 05:50:16;;;;;;;;;;;5.60;78.70;;;4.28;nan;96445.38;5011895;28;19935;-82
2023/03/20 05:53:06;;;;;;;;;;;5.60;78.80;;;4.25;nan;96443.13;5016098;28;19927;-82
2023/03/20 05:56:00;;;;;;;;;;;5.60;79.10;;;4.28;nan;96442.66;5063874;28;20258;-83
2023/03/20 05:58:46;;;;;;;;;;;5.60;79.50;;;4.35;nan;96448.03;5049252;28;19935;-83
2023/03/20 06:01:31;;;;;;;;;;;5.70;79.80;;;4.42;nan;96445.25;5016430;28;19927;-83
2023/03/20 06:04:09;;;;;;;;;;;5.80;79.60;;;4.47;nan;96456.22;5015703;28;19922;-82
2023/03/20 06:07:03;;;;;;;;;;;5.80;79.50;;;4.56;nan;96456.75;5014943;28;19940;-82
2023/03/20 06:09:31;;;;;;;;;;;5.90;79.50;;;4.58;nan;96450.03;5052429;28;19921;-83
2023/03/20 06:12:00;;;;;;;;;;;6.00;79.00;;;4.57;nan;96456.53;5052454;28;19927;-83
2023/03/20 06:14:28;;;;;;;;;;;6.00;79.00;;;4.56;nan;96448.63;5035236;28;19921;-82
2023/03/20 06:17:01;;;;;;;;;;;5.90;79.10;;;4.53;nan;96449.91;5035690;28;19921;-82
2023/03/20 06:19:30;;;;;;;;;;;5.90;79.50;;;4.49;nan;96445.97;5035781;28;19909;-82
2023/03/20 06:21:58;;;;;;;;;;;5.80;79.60;;;4.48;nan;96449.75;5052156;28;19921;-82
2023/03/20 06:24:26;;;;;;;;;;;5.80;80.00;;;4.48;nan;96455.16;5035036;28;20111;-83
2023/03/20 06:26:55;;;;;;;;;;;5.80;80.10;;;4.49;nan;96448.69;5052079;28;20364;-83
2023/03/20 06:29:23;;;;;;;;;;;5.80;80.30;;;4.53;nan;96452.63;5035668;28;19921;-82
2023/03/20 06:31:54;;;;;;;;;;;5.80;80.30;;;4.57;nan;96455.69;5035307;28;20097;-82
2023/03/20 06:34:29;;;;;;;;;;;5.80;80.50;;;4.62;nan;96453.16;5034819;28;19921;-82
2023/03/20 06:36:59;;;;;;;;;;;5.90;80.60;;;4.70;nan;96454.72;5035159;28;19943;-83
2023/03/20 06:39:28;;;;;;;;;;;5.90;80.40;;;4.72;nan;96452.59;5051683;28;19921;-82
2023/03/20 06:41:56;;;;;;;;;;;5.90;80.00;;;4.72;nan;96456.16;5035136;28;20204;-83
2023/03/20 06:44:26;;;;;;;;;;;6.00;80.00;;;4.72;nan;96456.16;5051259;28;19920;-83
2023/03/20 06:47:10;;;;;;;;;;;6.00;80.00;;;4.72;nan;96455.31;5035190;28;19927;-82
2023/03/20 06:49:39;;;;;;;;;;;6.00;79.90;;;4.69;nan;96447.66;5051629;28;19920;-82
2023/03/20 06:52:11;;;;;;;;;;;6.00;80.00;;;4.69;nan;96444.94;5051025;28;20226;-82
2023/03/20 06:54:40;;;;;;;;;;;6.00;80.10;;;4.65;nan;96455.38;5050889;28;19927;-82
2023/03/20 06:57:08;;;;;;;;;;;5.90;80.10;;;4.63;nan;96451.25;5034772;28;19921;-82
2023/03/20 06:59:36;;;;;;;;;;;5.90;80.20;;;4.63;nan;96453.97;5034767;28;19927;-82
2023/03/20 07:02:04;;;;;;;;;;;5.90;80.40;;;4.59;nan;96456.31;5034860;28;20111;-83
2023/03/20 07:04:33;;;;;;;;;;;5.90;80.40;;;4.57;nan;96451.13;5034362;28;20238;-82
2023/03/20 07:07:03;;;;;;;;;;;5.80;80.40;;;4.55;nan;96453.22;5051280;28;19920;-82
2023/03/20 07:09:33;;;;;;;;;;;5.80;80.50;;;4.54;nan;96451.56;5034785;28;20230;-83
2023/03/20 07:12:03;;;;;;;;;;;5.80;80.60;;;4.51;nan;96449.31;5034757;28;19921;-83
2023/03/20 07:14:32;;;;;;;;;;;5.80;80.70;;;4.50;nan;96449.53;5034314;28;19921;-82
2023/03/20 07:17:08;;;;;;;;;;;5.80;80.70;;;4.49;nan;96445.97;5034497;28;19921;-83
2023/03/20 07:19:36;;;;;;;;;;;5.80;80.80;;;4.47;nan;96445.38;5034415;28;19920;-82
2023/03/20 07:22:06;;;;;;;;;;;5.70;80.90;;;4.45;nan;96452.94;5051018;28;19921;-82
2023/03/20 07:24:40;;;;;;;;;;;5.70;81.00;;;4.44;nan;96453.97;5034006;28;20132;-82
2023/03/20 07:27:09;;;;;;;;;;;5.70;81.10;;;4.42;nan;96446.06;5034426;28;19921;-82
2023/03/20 07:29:38;;;;;;;;;;;5.70;81.10;;;4.42;nan;96447.94;5051092;28;19921;-82
2023/03/20 07:32:12;;;;;;;;;;;5.70;81.10;;;4.41;nan;96441.69;5051229;28;19939;-82
2023/03/20 07:34:49;;;;;;;;;;;5.70;81.10;;;4.40;nan;96442.75;5050541;28;19927;-82
2023/03/20 07:37:18;;;;;;;;;;;5.70;81.20;;;4.40;nan;96437.31;5034155;28;19924;-82
2023/03/20 07:39:58;;;;;;;;;;;5.60;81.10;;;-151.14;100.00;62537.16;5050865;28;19920;-82
2023/03/20 07:42:46;;;;;;;;;;;5.60;81.20;;;-151.14;100.00;62537.16;5033586;28;20220;-82
2023/03/20 07:45:23;;;;;;;;;;;5.60;81.20;;;-151.14;100.00;62537.16;5034410;28;19934;-82
2023/03/20 07:47:51;;;;;;;;;;;5.60;81.30;;;4.39;100.00;62537.16;5066907;28;19921;-82
2023/03/20 07:50:19;;;;;;;;;;;5.60;81.30;;;-151.14;100.00;62537.16;5087574;28;19920;-82
2023/03/20 07:52:48;;;;;;;;;;;5.70;81.30;;;-151.14;100.00;62537.16;5053698;28;19920;-82
2023/03/20 07:55:17;;;;;;;;;;;5.80;81.20;;;-151.14;100.00;62537.16;5053973;28;20238;-82
2023/03/20 07:57:45;;;;;;;;;;;5.80;80.90;;;-151.14;100.00;62537.16;5070495;28;19920;-82
2023/03/20 08:00:15;;;;;;;;;;;5.80;80.70;;;-151.14;100.00;62537.16;5070363;28;19926;-82
2023/03/20 08:02:43;;;;;;;;;;;5.90;80.70;;;-151.14;100.00;62537.16;5056767;28;19920;-83
2023/03/20 08:05:11;;;;;;;;;;;5.90;80.60;;;-151.14;100.00;62537.16;5050532;28;20135;-82
2023/03/20 08:07:39;;;;;;;;;;;5.90;80.60;;;-151.14;100.00;62537.16;5033861;28;19935;-82
2023/03/20 08:10:07;;;;;;;;;;;5.90;80.60;;;-151.14;100.00;62537.16;5033860;28;19935;-82
2023/03/20 08:12:37;;;;;;;;;;;5.90;80.50;;;-151.14;100.00;62537.16;5051052;28;19927;-83
2023/03/20 08:15:05;;;;;;;;;;;5.90;81.30;;;-151.14;100.00;62537.16;5066982;28;19921;-81
2023/03/20 08:17:33;;;;;;;;;;;6.00;80.40;;;-151.14;100.00;62537.16;5050202;28;20123;-83
2023/03/20 08:20:02;;;;;;;;;;;6.00;80.30;;;-151.14;100.00;62537.16;5066970;28;19921;-83
2023/03/20 08:22:30;;;;;;;;;;;6.10;80.20;;;-151.14;100.00;62537.16;5033611;28;19921;-82
2023/03/20 08:24:58;;;;;;;;;;;6.10;80.00;;;-151.14;100.00;62537.16;5049723;28;20250;-82
2023/03/20 08:27:26;;;;;;;;;;;6.20;79.80;;;-151.14;100.00;62537.16;5033506;28;19927;-82
2023/03/20 08:29:55;;;;;;;;;;;6.20;79.60;;;-151.14;100.00;62537.16;5050142;28;19921;-82
2023/03/20 08:32:25;;;;;;;;;;;6.20;79.50;;;-151.14;100.00;62537.16;5033514;28;19929;-82
2023/03/20 08:34:53;;;;;;;;;;;6.30;79.40;;;-151.14;100.00;62537.16;5049611;28;20146;-82
2023/03/20 08:37:21;;;;;;;;;;;6.30;79.10;;;-151.14;100.00;62537.16;5055134;28;19927;-82
2023/03/20 08:39:49;;;;;;;;;;;6.30;79.10;;;-151.14;100.00;62537.16;5070097;28;20238;-82
2023/03/20 08:42:17;;;;;;;;;;;6.30;79.10;;;-151.14;100.00;62537.16;5065805;28;19921;-82
2023/03/20 08:44:46;;;;;;;;;;;6.30;79.10;;;-151.14;100.00;62537.16;5049471;28;19927;-82
2023/03/20 08:47:16;;;;;;;;;;;6.30;79.10;;;-151.14;100.00;62537.16;5049850;28;19927;-82
2023/03/20 08:49:44;;;;;;;;;;;6.30;80.10;;;-151.14;100.00;62537.16;5033419;28;19943;-82
2023/03/20 08:52:12;;;;;;;;;;;6.30;79.20;;;-151.14;100.00;62537.16;5033274;28;19921;-82
2023/03/20 08:54:40;;;;;;;;;;;6.30;79.40;;;-151.14;100.00;62537.16;5049278;28;19927;-82
2023/03/20 08:57:08;;;;;;;;;;;6.20;79.30;;;-151.14;100.00;62537.16;5033325;28;19943;-82
2023/03/20 08:59:36;;;;;;;;;;;6.20;79.40;;;-151.14;100.00;62537.16;5049552;28;19927;-82
2023/03/20 09:02:04;;;;;;;;;;;6.20;79.50;;;-151.14;100.00;62537.16;5049759;28;20120;-82
2023/03/20 09:04:33;;;;;;;;;;;6.20;79.40;;;-151.14;100.00;62537.16;5049330;28;19921;-82
2023/03/20 09:07:01;;;;;;;;;;;6.20;79.50;;;-151.14;100.00;62537.16;5049554;28;19957;-82
2023/03/20 09:09:29;;;;;;;;;;;6.20;79.50;;;-151.14;100.00;62537.16;5049750;28;19921;-82
2023/03/20 09:11:58;;;;;;;;;;;6.20;79.60;;;4.95;100.00;62537.16;5049465;28;19921;-83
2023/03/20 09:14:26;;;;;;;;;;;6.20;79.60;;;-151.14;100.00;62537.16;5051610;28;19942;-82
2023/03/20 09:16:54;;;;;;;;;;;6.20;79.60;;;23.37;100.00;62537.16;5056465;28;19921;-82
2023/03/20 09:19:22;;;;;;;;;;;6.20;79.60;;;-151.14;100.00;62537.16;5055921;28;19920;-82
2023/03/20 09:21:51;;;;;;;;;;;6.20;79.50;;;-151.14;100.00;62537.16;5089945;28;20128;-82
2023/03/20 09:24:19;;;;;;;;;;;6.20;79.50;;;-151.14;100.00;62537.16;5072362;28;19920;-82
2023/03/20 09:26:47;;;;;;;;;;;6.20;79.50;;;-151.14;100.00;62537.16;5056296;28;19921;-83
2023/03/20 09:29:15;;;;;;;;;;;6.30;79.60;;;-151.14;100.00;62537.16;5072769;28;19927;-82
2023/03/20 09:31:43;;;;;;;;;;;6.30;79.50;;;5.07;100.00;62537.16;5089658;28;19921;-83
2023/03/20 09:34:11;;;;;;;;;;;6.30;79.40;;;-151.14;100.00;62537.16;5072199;28;19920;-83
2023/03/20 09:36:39;;;;;;;;;;;6.30;79.30;;;-151.14;100.00;62537.16;5072732;28;19921;-82
2023/03/20 09:39:09;;;;;;;;;;;6.30;79.20;;;5.12;100.00;62537.16;5055790;28;19921;-82
2023/03/20 09:41:37;;;;;;;;;;;6.40;79.20;;;-151.14;100.00;62537.16;5089604;28;19927;-82
2023/03/20 09:44:09;;;;;;;;;;;6.40;79.20;;;18.10;100.00;62537.16;5061334;28;20111;-83
2023/03/20 09:46:48;;;;;;;;;;;6.40;79.10;;;-151.14;100.00;62537.16;5036140;28;19925;-82
2023/03/20 09:49:20;;;;;;;;;;;6.40;79.10;;;-151.14;100.00;62537.16;5035906;28;19927;-82
2023/03/20 09:51:49;;;;;;;;;;;6.40;79.10;;;-151.14;100.00;62537.16;5052674;28;19927;-82
2023/03/20 09:54:21;;;;;;;;;;;6.40;79.10;;;-151.14;100.00;62537.16;5068571;28;19927;-82
2023/03/20 09:56:50;;;;;;;;;;;6.40;79.10;;;-151.14;100.00;62537.16;5052487;28;20212;-82
2023/03/20 09:59:18;;;;;;;;;;;6.40;79.10;;;-151.14;100.00;62537.16;5052155;28;20143;-82
2023/03/20 10:01:48;;;;;;;;;;;6.40;79.10;;;-151.14;100.00;62537.16;5052348;28;19921;-82
2023/03/20 10:04:16;;;;;;;;;;;6.40;79.10;;;-151.14;100.00;62537.16;5035194;28;20212;-82
2023/03/20 10:06:44;;;;;;;;;;;6.40;79.10;;;-151.14;100.00;62537.16;5035350;28;19921;-82
2023/03/20 10:09:15;;;;;;;;;;;6.40;79.10;;;18.09;100.00;62537.16;5052296;28;20230;-82
2023/03/20 10:11:58;;;;;;;;;;;6.40;79.10;;;-151.14;100.00;62537.16;5052230;28;19927;-82
2023/03/20 10:14:29;;;;;;;;;;;6.40;79.10;;;-151.14;100.00;62537.16;5034975;28;19927;-82
2023/03/20 10:17:04;;;;;;;;;;;6.40;79.20;;;5.14;100.00;62537.16;5035640;28;19927;-82
2023/03/20 10:19:32;;;;;;;;;;;6.40;79.20;;;5.13;100.00;62537.16;5068514;28;19920;-82
2023/03/20 10:22:02;;;;;;;;;;;6.40;79.20;;;-151.14;100.00;62537.16;5035563;28;19921;-82
2023/03/20 10:24:32;;;;;;;;;;;6.40;79.30;;;-151.14;100.00;62537.16;5051380;28;19927;-82
2023/03/20 10:27:05;;;;;;;;;;;6.40;79.30;;;-151.14;100.00;62537.16;5034667;28;19995;-83
2023/03/20 10:29:38;;;;;;;;;;;6.40;79.40;;;-151.14;100.00;62537.16;5035325;28;19935;-82
2023/03/20 10:32:08;;;;;;;;;;;6.40;79.40;;;-151.14;100.00;62537.16;5053043;28;19921;-82
2023/03/20 10:34:53;;;;;;;;;;;6.40;79.40;;;-151.14;100.00;62537.16;5034731;28;19920;-82
2023/03/20 10:37:41;;;;;;;;;;;6.40;79.40;;;-151.14;100.00;62537.16;5035236;28;19927;-82
2023/03/20 10:40:27;;;;;;;;;;;6.40;80.40;;;-151.14;100.00;62537.16;5051755;28;20234;-82
2023/03/20 10:42:59;;;;;;;;;;;6.30;79.50;;;-151.14;100.00;62537.16;5051391;28;19935;-82
2023/03/20 10:45:36;;;;;;;;;;;6.30;79.60;;;-151.14;100.00;62537.16;5052813;28;19920;-83
2023/03/20 10:48:07;;;;;;;;;;;6.30;79.60;;;-151.14;100.00;62537.16;5035128;28;20115;-83
2023/03/20 10:50:37;;;;;;;;;;;6.30;79.60;;;-151.14;100.00;62537.16;5052765;28;19947;-82
2023/03/20 10:53:05;;;;;;;;;;;6.30;79.70;;;5.04;100.00;62537.16;5034436;28;19927;-83
2023/03/20 10:55:36;;;;;;;;;;;6.30;79.70;;;-151.14;100.00;62537.16;5035282;28;19942;-82
2023/03/20 10:58:11;;;;;;;;;;;6.30;79.80;;;-151.14;100.00;62537.16;5034940;28;19920;-82
2023/03/20 11:00:39;;;;;;;;;;;6.30;79.80;;;-151.14;100.00;62537.16;5051237;28;19927;-82
2023/03/20 11:03:08;;;;;;;;;;;6.30;79.90;;;-151.14;100.00;62537.16;5034261;28;19927;-83
2023/03/20 11:05:37;;;;;;;;;;;6.30;79.90;;;-151.14;100.00;62537.16;5052516;28;20127;-83
2023/03/20 11:08:06;;;;;;;;;;;6.30;80.00;;;-151.14;100.00;62537.16;5034838;28;19920;-82
2023/03/20 11:10:35;;;;;;;;;;;6.30;80.10;;;5.00;100.00;62537.16;5034638;28;19927;-82
2023/03/20 11:13:15;;;;;;;;;;;6.30;80.10;;;-151.14;100.00;62537.16;5050624;28;19921;-83
2023/03/20 11:15:43;;;;;;;;;;;6.30;80.10;;;-151.14;100.00;62537.16;5051310;28;19921;-83
2023/03/20 11:18:13;;;;;;;;;;;6.30;80.20;;;-151.14;100.00;62537.16;5051297;28;19928;-83
2023/03/20 11:20:45;;;;;;;;;;;6.30;80.20;;;-151.14;100.00;62537.16;5051084;28;19992;-83
2023/03/20 11:23:16;;;;;;;;;;;6.30;80.20;;;5.00;100.00;62537.16;5050549;28;19921;-82
2023/03/20 11:25:50;;;;;;;;;;;6.30;80.20;;;-151.14;100.00;62537.16;5067906;28;19921;-83
2023/03/20 11:28:31;;;;;;;;;;;6.30;80.30;;;-151.14;100.00;62537.16;5051060;28;19927;-82
2023/03/20 11:31:00;;;;;;;;;;;6.30;80.30;;;-151.14;100.00;62537.16;5034531;28;20093;-83
2023/03/20 11:33:28;;;;;;;;;;;6.20;80.30;;;-151.14;100.00;62537.16;5067248;28;19921;-83
2023/03/20 11:35:57;;;;;;;;;;;6.20;80.40;;;-151.14;100.00;62537.16;5050850;28;19921;-83
2023/03/20 11:38:25;;;;;;;;;;;6.20;80.30;;;-151.14;100.00;62537.16;5050855;28;19935;-83
2023/03/20 11:40:53;;;;;;;;;;;6.20;80.40;;;-151.14;100.00;62537.16;5034120;28;19943;-83
2023/03/20 11:43:22;;;;;;;;;;;6.20;80.40;;;-151.14;100.00;62537.16;5051505;28;19921;-82
2023/03/20 11:45:55;;;;;;;;;;;6.20;80.40;;;18.09;100.00;62537.16;5051966;28;20204;-83
2023/03/20 11:48:24;;;;;;;;;;;6.20;80.40;;;-151.14;100.00;62537.16;5050698;28;19927;-82
2023/03/20 11:50:56;;;;;;;;;;;6.30;80.60;;;-151.14;100.00;62537.16;5034068;28;19921;-83
2023/03/20 11:53:26;;;;;;;;;;;6.20;80.50;;;4.96;100.00;62537.16;5033623;28;19928;-83
2023/03/20 11:56:04;;;;;;;;;;;6.20;80.60;;;4.95;100.00;62537.16;5050638;28;20119;-83
2023/03/20 11:58:32;;;;;;;;;;;6.20;80.60;;;-151.14;100.00;62537.16;5050515;28;19927;-83